Time;durP1;ratioP1;P1;durP2;ratioP2;P2;SDS_P1;SDS_P2;PMS_P1;PMS_P2;Temp;Humidity;BMP_temperature;BMP_pressure;BME280_temperature;BME280_humidity;BME280_pressure;Samples;Min_cycle;Max_cycle;Signal;HPM_P1;HPM_P2
2023/10/21 00:02:25;;;;;;;28.93;16.03;;;;;;;;;;6184509;23;20178;-88
2023/10/21 00:04:54;;;;;;;50.70;25.70;;;;;;;;;;6185223;23;20167;-88
2023/10/21 00:07:22;;;;;;;46.10;29.50;;;;;;;;;;6184609;23;20194;-88
2023/10/21 00:09:53;;;;;;;38.97;21.53;;;;;;;;;;6185577;23;20175;-88
2023/10/21 00:12:22;;;;;;;19.87;9.67;;;;;;;;;;6185081;23;20207;-88
2023/10/21 00:14:50;;;;;;;47.97;25.37;;;;;;;;;;6185060;23;20179;-88
2023/10/21 00:17:19;;;;;;;44.63;23.87;;;;;;;;;;6185008;23;20179;-88
2023/10/21 00:19:47;;;;;;;43.23;29.03;;;;;;;;;;6185371;23;20195;-88
2023/10/21 00:22:16;;;;;;;44.60;23.53;;;;;;;;;;6185022;23;20316;-88
2023/10/21 00:24:45;;;;;;;53.60;27.83;;;;;;;;;;6184490;23;20180;-89
2023/10/21 00:27:15;;;;;;;38.53;22.50;;;;;;;;;;6184686;23;20175;-89
2023/10/21 00:29:43;;;;;;;48.40;30.20;;;;;;;;;;6184781;23;20187;-88
2023/10/21 00:32:12;;;;;;;40.17;23.20;;;;;;;;;;6184403;23;20214;-88
2023/10/21 00:34:40;;;;;;;43.70;24.43;;;;;;;;;;6184192;23;20179;-88
2023/10/21 00:37:09;;;;;;;46.47;25.53;;;;;;;;;;6184641;23;20171;-88
2023/10/21 00:39:39;;;;;;;37.13;19.07;;;;;;;;;;6184623;23;20290;-89
2023/10/21 00:42:07;;;;;;;53.63;31.40;;;;;;;;;;6184114;23;20168;-88
2023/10/21 00:44:37;;;;;;;45.80;23.20;;;;;;;;;;6184272;23;20206;-88
2023/10/21 00:47:06;;;;;;;44.27;25.00;;;;;;;;;;6184301;23;20206;-88
2023/10/21 00:49:35;;;;;;;38.70;19.57;;;;;;;;;;6185224;23;20175;-89
2023/10/21 00:52:05;;;;;;;52.50;31.67;;;;;;;;;;6184377;23;20195;-88
2023/10/21 00:54:33;;;;;;;57.90;30.33;;;;;;;;;;6184053;23;20171;-89
2023/10/21 00:57:02;;;;;;;43.90;25.37;;;;;;;;;;6184703;23;20178;-88
2023/10/21 00:59:31;;;;;;;52.23;28.17;;;;;;;;;;6184837;23;20207;-88
2023/10/21 01:02:01;;;;;;;53.33;30.80;;;;;;;;;;6183990;23;20259;-88
2023/10/21 01:04:29;;;;;;;47.93;27.70;;;;;;;;;;6183914;23;20179;-88
2023/10/21 01:06:59;;;;;;;55.10;30.30;;;;;;;;;;6184310;23;20291;-88
2023/10/21 01:09:28;;;;;;;46.07;25.40;;;;;;;;;;6184917;23;20179;-88
2023/10/21 01:11:57;;;;;;;45.87;26.43;;;;;;;;;;6184004;23;20213;-88
2023/10/21 01:14:25;;;;;;;43.87;21.77;;;;;;;;;;6183808;23;20179;-88
2023/10/21 01:16:54;;;;;;;54.53;32.83;;;;;;;;;;6185055;23;20178;-88
2023/10/21 01:19:24;;;;;;;53.53;30.97;;;;;;;;;;6185323;23;20572;-89
2023/10/21 01:21:53;;;;;;;52.13;26.13;;;;;;;;;;6185091;23;20178;-89
2023/10/21 01:24:23;;;;;;;45.77;26.70;;;;;;;;;;6184185;23;20171;-88
2023/10/21 01:26:51;;;;;;;42.10;22.30;;;;;;;;;;6184459;23;20175;-88
2023/10/21 01:29:20;;;;;;;21.07;12.83;;;;;;;;;;6184546;23;20213;-88
2023/10/21 01:31:48;;;;;;;41.83;23.43;;;;;;;;;;6183931;23;20195;-88
2023/10/21 01:34:17;;;;;;;35.50;20.77;;;;;;;;;;6184047;23;20258;-88
2023/10/21 01:36:46;;;;;;;41.20;26.83;;;;;;;;;;6184716;23;20205;-88
2023/10/21 01:39:14;;;;;;;36.70;26.20;;;;;;;;;;6184166;23;20202;-88
2023/10/21 01:41:44;;;;;;;33.23;22.60;;;;;;;;;;6183255;23;20189;-88
2023/10/21 01:44:13;;;;;;;40.27;25.47;;;;;;;;;;6184025;23;20179;-88
2023/10/21 01:46:41;;;;;;;36.47;20.73;;;;;;;;;;6184434;23;20175;-88
2023/10/21 01:49:10;;;;;;;34.27;22.60;;;;;;;;;;6184492;23;20207;-88
2023/10/21 01:51:39;;;;;;;27.10;16.33;;;;;;;;;;6183662;23;20197;-88
2023/10/21 01:54:07;;;;;;;29.27;18.97;;;;;;;;;;6184239;23;20171;-88
2023/10/21 01:56:36;;;;;;;28.77;17.60;;;;;;;;;;6184043;23;20181;-88
2023/10/21 01:59:08;;;;;;;34.63;15.07;;;;;;;;;;6184648;23;20258;-88
2023/10/21 02:01:36;;;;;;;26.30;15.63;;;;;;;;;;6184166;23;20258;-88
2023/10/21 02:04:05;;;;;;;26.53;14.00;;;;;;;;;;6184472;23;20198;-88
2023/10/21 02:06:34;;;;;;;20.40;11.97;;;;;;;;;;6184823;23;20208;-88
2023/10/21 02:09:02;;;;;;;26.73;18.27;;;;;;;;;;6184722;23;20428;-88
2023/10/21 02:11:32;;;;;;;30.03;20.57;;;;;;;;;;6183398;23;20187;-89
2023/10/21 02:14:01;;;;;;;26.30;15.60;;;;;;;;;;6184300;23;20206;-89
2023/10/21 02:16:31;;;;;;;17.50;9.10;;;;;;;;;;6183943;23;20206;-88
2023/10/21 02:18:59;;;;;;;18.67;10.57;;;;;;;;;;6185817;23;20209;-89
2023/10/21 02:21:28;;;;;;;26.43;15.77;;;;;;;;;;6185299;23;20174;-88
2023/10/21 02:23:56;;;;;;;21.90;13.37;;;;;;;;;;6186866;23;20175;-88
2023/10/21 02:26:25;;;;;;;22.97;14.10;;;;;;;;;;6186280;23;20166;-88
2023/10/21 02:28:54;;;;;;;27.67;15.13;;;;;;;;;;6186593;23;20265;-89
2023/10/21 02:31:23;;;;;;;25.77;14.27;;;;;;;;;;6185716;23;20194;-88
2023/10/21 02:33:53;;;;;;;13.03;7.50;;;;;;;;;;6186076;23;20171;-88
2023/10/21 02:36:24;;;;;;;32.97;18.10;;;;;;;;;;6186688;23;20171;-88
2023/10/21 02:38:53;;;;;;;30.23;15.77;;;;;;;;;;6185971;23;20171;-88
2023/10/21 02:41:21;;;;;;;29.77;16.37;;;;;;;;;;6185205;23;20191;-89
2023/10/21 02:43:50;;;;;;;15.73;9.23;;;;;;;;;;6185949;23;20202;-88
2023/10/21 02:46:19;;;;;;;22.57;13.80;;;;;;;;;;6185735;23;20182;-88
2023/10/21 02:48:48;;;;;;;23.60;10.20;;;;;;;;;;6185962;23;20171;-88
2023/10/21 02:51:18;;;;;;;23.20;13.17;;;;;;;;;;6185214;23;20187;-88
2023/10/21 02:53:47;;;;;;;25.73;16.47;;;;;;;;;;6186696;23;20207;-88
2023/10/21 02:56:15;;;;;;;25.93;18.50;;;;;;;;;;6186855;23;20179;-89
2023/10/21 02:58:44;;;;;;;26.00;10.13;;;;;;;;;;6185713;23;20181;-89
2023/10/21 03:01:17;;;;;;;9.67;6.70;;;;;;;;;;6185208;23;20175;-89
2023/10/21 03:03:46;;;;;;;31.67;25.03;;;;;;;;;;6185692;23;20435;-90
2023/10/21 03:06:16;;;;;;;27.17;19.97;;;;;;;;;;6185381;23;20182;-89
2023/10/21 03:08:47;;;;;;;21.37;11.87;;;;;;;;;;6185842;23;20181;-89
2023/10/21 03:11:16;;;;;;;31.40;20.80;;;;;;;;;;6185244;23;20207;-88
2023/10/21 03:13:45;;;;;;;24.47;16.93;;;;;;;;;;6185112;23;20310;-88
2023/10/21 03:16:14;;;;;;;25.07;15.57;;;;;;;;;;6185331;23;20167;-89
2023/10/21 03:18:45;;;;;;;25.70;16.57;;;;;;;;;;6185201;23;20195;-88
2023/10/21 03:21:14;;;;;;;30.00;18.57;;;;;;;;;;6185625;23;20203;-88
2023/10/21 03:23:43;;;;;;;20.27;14.63;;;;;;;;;;6186158;23;20174;-88
2023/10/21 03:26:13;;;;;;;15.33;10.73;;;;;;;;;;6186135;23;20230;-89
2023/10/21 03:28:43;;;;;;;21.17;12.33;;;;;;;;;;6185191;23;20179;-89
2023/10/21 03:31:13;;;;;;;26.80;18.17;;;;;;;;;;6185311;23;20176;-88
2023/10/21 03:33:41;;;;;;;8.53;7.13;;;;;;;;;;6186030;23;20187;-89
2023/10/21 03:36:10;;;;;;;20.93;12.53;;;;;;;;;;6185872;23;20171;-88
2023/10/21 03:38:40;;;;;;;27.70;15.20;;;;;;;;;;6185358;23;20175;-89
2023/10/21 03:41:09;;;;;;;21.53;14.73;;;;;;;;;;6185467;23;20226;-88
2023/10/21 03:43:39;;;;;;;20.43;15.83;;;;;;;;;;6185551;23;20172;-89
2023/10/21 03:46:08;;;;;;;31.30;17.23;;;;;;;;;;6185352;23;20182;-88
2023/10/21 03:48:37;;;;;;;26.40;17.33;;;;;;;;;;6184376;23;20171;-88
2023/10/21 03:51:06;;;;;;;23.67;17.70;;;;;;;;;;6185415;23;20194;-88
2023/10/21 03:53:35;;;;;;;21.33;15.33;;;;;;;;;;6185119;23;20205;-88
2023/10/21 03:56:04;;;;;;;24.07;16.83;;;;;;;;;;6185075;23;20207;-88
2023/10/21 03:58:33;;;;;;;19.03;15.87;;;;;;;;;;6184926;23;20171;-88
2023/10/21 04:01:03;;;;;;;23.23;17.47;;;;;;;;;;6185595;23;20183;-89
2023/10/21 04:03:32;;;;;;;14.07;11.07;;;;;;;;;;6185438;23;20277;-88
2023/10/21 04:06:00;;;;;;;30.87;20.70;;;;;;;;;;6184784;23;20172;-88
2023/10/21 04:08:30;;;;;;;25.37;19.07;;;;;;;;;;6184549;23;20245;-88
2023/10/21 04:10:59;;;;;;;22.43;17.73;;;;;;;;;;6185357;23;20207;-89
2023/10/21 04:13:27;;;;;;;28.20;20.47;;;;;;;;;;6184683;23;20210;-88
2023/10/21 04:15:56;;;;;;;26.37;20.40;;;;;;;;;;6184744;23;20175;-88
2023/10/21 04:18:27;;;;;;;23.57;16.33;;;;;;;;;;6184879;23;20205;-88
2023/10/21 04:20:55;;;;;;;27.67;23.60;;;;;;;;;;6185233;23;20179;-89
2023/10/21 04:23:24;;;;;;;34.80;22.73;;;;;;;;;;6184766;23;20218;-89
2023/10/21 04:25:53;;;;;;;24.50;19.10;;;;;;;;;;6184648;23;20194;-89
2023/10/21 04:28:21;;;;;;;29.47;20.67;;;;;;;;;;6184524;23;20175;-89
2023/10/21 04:30:50;;;;;;;29.47;21.30;;;;;;;;;;6185157;23;20175;-88
2023/10/21 04:33:19;;;;;;;29.13;21.83;;;;;;;;;;6185038;23;20191;-88
2023/10/21 04:35:49;;;;;;;31.77;22.97;;;;;;;;;;6184938;23;20175;-89
2023/10/21 04:38:18;;;;;;;25.43;20.50;;;;;;;;;;6184382;23;20176;-88
2023/10/21 04:40:46;;;;;;;28.10;22.10;;;;;;;;;;6184214;23;20226;-88
2023/10/21 04:43:16;;;;;;;26.87;17.83;;;;;;;;;;6183990;23;20167;-89
2023/10/21 04:45:44;;;;;;;22.83;17.17;;;;;;;;;;6184000;23;20179;-88
2023/10/21 04:48:13;;;;;;;27.17;19.03;;;;;;;;;;6185395;23;20176;-89
2023/10/21 04:50:41;;;;;;;24.47;13.57;;;;;;;;;;6184653;23;20237;-88
2023/10/21 04:53:12;;;;;;;27.63;16.67;;;;;;;;;;6184532;23;20187;-89
2023/10/21 04:55:40;;;;;;;26.47;16.77;;;;;;;;;;6184211;23;20175;-88
2023/10/21 04:58:09;;;;;;;25.40;14.93;;;;;;;;;;6185075;23;20266;-89
2023/10/21 05:00:37;;;;;;;21.23;16.63;;;;;;;;;;6186020;23;20177;-89
2023/10/21 05:03:06;;;;;;;28.73;20.10;;;;;;;;;;6185006;23;20167;-90
2023/10/21 05:05:37;;;;;;;19.93;17.80;;;;;;;;;;6184622;23;20167;-88
2023/10/21 05:08:09;;;;;;;24.27;17.07;;;;;;;;;;6185456;23;20166;-89
2023/10/21 05:10:39;;;;;;;17.80;11.97;;;;;;;;;;6185037;23;20185;-88
2023/10/21 05:13:08;;;;;;;25.87;19.47;;;;;;;;;;6184780;23;20207;-89
2023/10/21 05:15:38;;;;;;;21.63;13.40;;;;;;;;;;6184659;23;20403;-89
2023/10/21 05:18:07;;;;;;;23.90;15.70;;;;;;;;;;6185711;23;20259;-89
2023/10/21 05:20:37;;;;;;;29.50;21.43;;;;;;;;;;6183623;23;20171;-88
2023/10/21 05:23:05;;;;;;;26.77;21.87;;;;;;;;;;6184301;23;20205;-89
2023/10/21 05:25:34;;;;;;;29.23;23.87;;;;;;;;;;6183655;23;20179;-89
2023/10/21 05:28:05;;;;;;;21.63;12.03;;;;;;;;;;6184444;23;20266;-89
2023/10/21 05:30:34;;;;;;;24.83;18.50;;;;;;;;;;6184286;23;20257;-89
2023/10/21 05:33:02;;;;;;;30.60;23.90;;;;;;;;;;6183999;23;20264;-88
2023/10/21 05:35:33;;;;;;;27.37;20.67;;;;;;;;;;6184234;23;20220;-89
2023/10/21 05:38:02;;;;;;;25.30;20.23;;;;;;;;;;6184579;23;20179;-89
2023/10/21 05:40:30;;;;;;;26.50;17.47;;;;;;;;;;6183965;23;20262;-89
2023/10/21 05:42:59;;;;;;;27.27;19.43;;;;;;;;;;6183905;23;20175;-89
2023/10/21 05:45:29;;;;;;;28.57;19.87;;;;;;;;;;6183547;23;20168;-89
2023/10/21 05:47:58;;;;;;;25.00;19.00;;;;;;;;;;6184252;23;20193;-88
2023/10/21 05:50:27;;;;;;;24.87;21.50;;;;;;;;;;6184033;23;20180;-89
2023/10/21 05:52:55;;;;;;;20.23;15.87;;;;;;;;;;6183259;23;20198;-89
2023/10/21 05:55:24;;;;;;;23.23;19.83;;;;;;;;;;6183718;23;20262;-88
2023/10/21 05:57:53;;;;;;;26.07;18.23;;;;;;;;;;6184580;23;20179;-89
2023/10/21 06:00:21;;;;;;;20.57;16.10;;;;;;;;;;6183887;23;20178;-89
2023/10/21 06:02:51;;;;;;;23.00;15.70;;;;;;;;;;6184048;23;20179;-89
2023/10/21 06:05:21;;;;;;;21.17;16.03;;;;;;;;;;6183549;23;20178;-89
2023/10/21 06:07:49;;;;;;;16.50;14.60;;;;;;;;;;6183996;23;20178;-89
2023/10/21 06:10:18;;;;;;;19.93;16.87;;;;;;;;;;6183789;23;20182;-89
2023/10/21 06:12:46;;;;;;;19.10;14.50;;;;;;;;;;6182931;23;20213;-88
2023/10/21 06:15:18;;;;;;;17.07;11.87;;;;;;;;;;6183688;23;20222;-89
2023/10/21 06:17:47;;;;;;;20.03;15.90;;;;;;;;;;6183649;23;20171;-88
2023/10/21 06:20:17;;;;;;;21.63;17.63;;;;;;;;;;6183700;23;20277;-89
2023/10/21 06:22:45;;;;;;;18.20;12.67;;;;;;;;;;6183332;23;20214;-89
2023/10/21 06:25:15;;;;;;;18.73;14.10;;;;;;;;;;6183857;23;20182;-88
2023/10/21 06:27:44;;;;;;;17.20;12.20;;;;;;;;;;6184557;23;20186;-89
2023/10/21 06:30:13;;;;;;;18.93;12.20;;;;;;;;;;6184117;23;20167;-88
2023/10/21 06:32:41;;;;;;;18.93;11.60;;;;;;;;;;6183426;23;20195;-89
2023/10/21 06:35:10;;;;;;;18.77;15.37;;;;;;;;;;6183465;23;20195;-88
2023/10/21 06:37:40;;;;;;;17.60;12.73;;;;;;;;;;6184222;23;20176;-89
2023/10/21 06:40:09;;;;;;;17.37;13.10;;;;;;;;;;6183927;23;20221;-88
2023/10/21 06:42:38;;;;;;;18.03;12.43;;;;;;;;;;6183195;23;20197;-88
2023/10/21 06:45:08;;;;;;;13.73;11.03;;;;;;;;;;6183813;23;20170;-88
2023/10/21 06:47:36;;;;;;;14.20;12.20;;;;;;;;;;6183812;23;20175;-89
2023/10/21 06:50:05;;;;;;;15.17;12.17;;;;;;;;;;6184116;23;20207;-88
2023/10/21 06:52:34;;;;;;;18.27;14.73;;;;;;;;;;6183877;23;20175;-89
2023/10/21 06:55:04;;;;;;;15.70;12.97;;;;;;;;;;6184123;23;20226;-88
2023/10/21 06:57:33;;;;;;;13.93;10.23;;;;;;;;;;6184298;23;20183;-88
2023/10/21 07:00:02;;;;;;;13.83;9.37;;;;;;;;;;6183857;23;20167;-88
2023/10/21 07:02:32;;;;;;;17.37;10.03;;;;;;;;;;6183056;23;20195;-88
2023/10/21 07:05:01;;;;;;;11.60;8.13;;;;;;;;;;6184714;23;20175;-89
2023/10/21 07:07:29;;;;;;;12.93;8.50;;;;;;;;;;6185317;23;20174;-89
2023/10/21 07:09:58;;;;;;;12.30;9.50;;;;;;;;;;6185413;23;20171;-88
2023/10/21 07:12:28;;;;;;;11.90;8.97;;;;;;;;;;6184692;23;20175;-88
2023/10/21 07:14:57;;;;;;;13.43;12.00;;;;;;;;;;6185765;23;20221;-88
2023/10/21 07:17:25;;;;;;;13.37;10.33;;;;;;;;;;6185552;23;20225;-88
2023/10/21 07:19:57;;;;;;;13.83;10.33;;;;;;;;;;6185035;23;20242;-89
2023/10/21 07:22:25;;;;;;;17.63;11.77;;;;;;;;;;6185329;23;20261;-88
2023/10/21 07:24:57;;;;;;;15.23;10.20;;;;;;;;;;6185624;23;20174;-89
2023/10/21 07:27:27;;;;;;;15.50;10.10;;;;;;;;;;6185294;23;20242;-89
2023/10/21 07:29:57;;;;;;;16.57;11.53;;;;;;;;;;6185285;23;20186;-89
2023/10/21 07:32:25;;;;;;;12.60;8.50;;;;;;;;;;6184803;23;20175;-88
2023/10/21 07:34:54;;;;;;;11.20;10.10;;;;;;;;;;6185651;23;20194;-88
2023/10/21 07:37:22;;;;;;;21.73;9.60;;;;;;;;;;6185293;23;20250;-88
2023/10/21 07:39:51;;;;;;;10.57;7.57;;;;;;;;;;6184920;23;20183;-89
2023/10/21 07:42:19;;;;;;;17.93;12.20;;;;;;;;;;6184604;23;20171;-89
2023/10/21 07:44:48;;;;;;;13.80;10.87;;;;;;;;;;6185194;23;20190;-89
2023/10/21 07:47:19;;;;;;;14.70;8.97;;;;;;;;;;6185317;23;20172;-89
2023/10/21 07:49:54;;;;;;;10.50;9.43;;;;;;;;;;6184749;23;20266;-87
2023/10/21 07:52:24;;;;;;;14.43;9.57;;;;;;;;;;6185783;23;20176;-87
2023/10/21 07:54:54;;;;;;;11.37;8.70;;;;;;;;;;6184409;23;20191;-87
2023/10/21 07:57:23;;;;;;;12.23;9.90;;;;;;;;;;6185899;23;20181;-89
2023/10/21 07:59:51;;;;;;;13.87;9.67;;;;;;;;;;6184693;23;20268;-89
2023/10/21 08:02:28;;;;;;;21.60;11.50;;;;;;;;;;6185080;23;20210;-88
2023/10/21 08:05:00;;;;;;;12.33;11.07;;;;;;;;;;6185482;23;20250;-89
2023/10/21 08:07:29;;;;;;;8.90;7.63;;;;;;;;;;6184490;23;20172;-88
2023/10/21 08:09:58;;;;;;;17.67;12.47;;;;;;;;;;6184516;23;20176;-88
2023/10/21 08:12:26;;;;;;;9.50;7.80;;;;;;;;;;6184430;23;20209;-88
2023/10/21 08:14:57;;;;;;;13.27;11.77;;;;;;;;;;6184614;23;20192;-89
2023/10/21 08:17:27;;;;;;;13.17;11.00;;;;;;;;;;6184017;23;20171;-89
2023/10/21 08:19:56;;;;;;;14.20;9.90;;;;;;;;;;6183709;23;20195;-89
2023/10/21 08:22:25;;;;;;;13.87;10.90;;;;;;;;;;6184742;23;20191;-88
2023/10/21 08:24:54;;;;;;;6.93;4.87;;;;;;;;;;6184451;23;20245;-88
2023/10/21 08:27:23;;;;;;;12.87;10.27;;;;;;;;;;6184513;23;20175;-89
2023/10/21 08:29:53;;;;;;;13.97;10.83;;;;;;;;;;6184454;23;20255;-89
2023/10/21 08:32:21;;;;;;;10.23;7.97;;;;;;;;;;6184945;23;20171;-89
2023/10/21 08:34:51;;;;;;;9.80;8.07;;;;;;;;;;6184449;23;20194;-89
2023/10/21 08:37:20;;;;;;;10.40;9.33;;;;;;;;;;6184588;23;20218;-89
2023/10/21 08:39:48;;;;;;;11.93;10.10;;;;;;;;;;6184169;23;20193;-89
2023/10/21 08:42:17;;;;;;;10.03;9.00;;;;;;;;;;6184812;23;20233;-88
2023/10/21 08:44:46;;;;;;;12.17;11.07;;;;;;;;;;6185252;23;20230;-89
2023/10/21 08:47:15;;;;;;;10.03;9.03;;;;;;;;;;6184035;23;20172;-89
2023/10/21 08:49:46;;;;;;;9.07;7.27;;;;;;;;;;6184142;23;20183;-89
2023/10/21 08:52:16;;;;;;;10.00;7.97;;;;;;;;;;6184256;23;20177;-89
2023/10/21 08:54:46;;;;;;;12.67;9.10;;;;;;;;;;6184867;23;20176;-88
2023/10/21 08:57:16;;;;;;;10.33;8.53;;;;;;;;;;6183741;23;20173;-89
2023/10/21 08:59:45;;;;;;;13.37;10.90;;;;;;;;;;6184509;23;20214;-89
2023/10/21 09:02:14;;;;;;;12.00;7.57;;;;;;;;;;6184154;23;20171;-89
2023/10/21 09:04:42;;;;;;;6.73;6.07;;;;;;;;;;6184916;23;20176;-88
2023/10/21 09:07:12;;;;;;;6.87;4.87;;;;;;;;;;6183806;23;20206;-89
2023/10/21 09:09:41;;;;;;;11.27;7.03;;;;;;;;;;6183957;23;20168;-88
2023/10/21 09:12:12;;;;;;;6.17;5.50;;;;;;;;;;6184026;23;20177;-89
2023/10/21 09:14:55;;;;;;;4.07;2.30;;;;;;;;;;6183982;23;20175;-88
2023/10/21 09:17:34;;;;;;;5.63;4.73;;;;;;;;;;6183745;23;20187;-88
2023/10/21 09:20:07;;;;;;;4.47;3.27;;;;;;;;;;6183984;23;20198;-89
2023/10/21 09:22:36;;;;;;;5.83;5.13;;;;;;;;;;6183866;23;20167;-88
2023/10/21 09:25:16;;;;;;;5.97;4.37;;;;;;;;;;6184464;23;20230;-88
2023/10/21 09:27:45;;;;;;;6.80;4.13;;;;;;;;;;6183034;23;20172;-88
2023/10/21 09:30:17;;;;;;;6.10;4.70;;;;;;;;;;6184832;23;20179;-88
2023/10/21 09:32:46;;;;;;;7.13;4.00;;;;;;;;;;6183828;23;20176;-88
2023/10/21 09:35:16;;;;;;;5.33;4.30;;;;;;;;;;6183694;23;20187;-88
2023/10/21 09:37:46;;;;;;;4.10;3.70;;;;;;;;;;6184029;23;20175;-88
2023/10/21 09:40:16;;;;;;;4.53;3.90;;;;;;;;;;6184360;23;20186;-88
2023/10/21 09:42:47;;;;;;;3.43;2.33;;;;;;;;;;6183906;23;20175;-88
2023/10/21 09:45:17;;;;;;;3.10;2.00;;;;;;;;;;6183650;23;20229;-88
2023/10/21 09:47:46;;;;;;;2.77;2.30;;;;;;;;;;6183837;23;20177;-88
2023/10/21 09:50:15;;;;;;;3.37;2.23;;;;;;;;;;6184506;23;20169;-89
2023/10/21 09:52:53;;;;;;;5.53;2.40;;;;;;;;;;6183817;23;20180;-88
2023/10/21 09:55:25;;;;;;;2.50;2.30;;;;;;;;;;6183290;23;20277;-89
2023/10/21 09:57:54;;;;;;;1.17;1.17;;;;;;;;;;6183258;23;20251;-88
2023/10/21 10:00:24;;;;;;;3.30;2.30;;;;;;;;;;6184317;23;20278;-88
2023/10/21 10:02:54;;;;;;;2.40;2.20;;;;;;;;;;6183872;23;20203;-88
2023/10/21 10:05:24;;;;;;;4.10;2.60;;;;;;;;;;6183157;23;20168;-88
2023/10/21 10:07:53;;;;;;;1.93;1.70;;;;;;;;;;6184593;23;20175;-88
2023/10/21 10:10:25;;;;;;;3.53;2.40;;;;;;;;;;6184959;23;20267;-88
2023/10/21 10:12:56;;;;;;;2.20;2.00;;;;;;;;;;6183269;23;20228;-88
2023/10/21 10:15:28;;;;;;;3.60;2.07;;;;;;;;;;6182971;23;20177;-88
2023/10/21 10:17:57;;;;;;;2.33;2.13;;;;;;;;;;6184443;23;20179;-88
2023/10/21 10:20:26;;;;;;;2.30;1.80;;;;;;;;;;6183683;23;20199;-88
2023/10/21 10:23:02;;;;;;;2.37;1.77;;;;;;;;;;6184294;23;20178;-88
2023/10/21 10:25:36;;;;;;;3.10;2.20;;;;;;;;;;6183493;23;20263;-88
2023/10/21 10:28:07;;;;;;;3.80;2.20;;;;;;;;;;6184217;23;20200;-88
2023/10/21 10:30:37;;;;;;;2.57;2.10;;;;;;;;;;6184127;23;20227;-89
2023/10/21 10:33:07;;;;;;;2.27;2.03;;;;;;;;;;6183412;23;20180;-88
2023/10/21 10:35:39;;;;;;;2.10;1.90;;;;;;;;;;6183416;23;20172;-88
2023/10/21 10:38:20;;;;;;;3.07;2.23;;;;;;;;;;6183776;23;20168;-88
2023/10/21 10:40:50;;;;;;;2.10;1.80;;;;;;;;;;6185891;23;20172;-88
2023/10/21 10:43:19;;;;;;;4.50;2.40;;;;;;;;;;6185118;23;20173;-88
2023/10/21 10:45:48;;;;;;;4.07;2.47;;;;;;;;;;6185903;23;20179;-88
2023/10/21 10:48:17;;;;;;;3.63;2.27;;;;;;;;;;6185474;23;20182;-89
2023/10/21 10:50:46;;;;;;;0.87;0.87;;;;;;;;;;6185404;23;20263;-88
2023/10/21 10:53:18;;;;;;;3.03;2.30;;;;;;;;;;6184499;23;20178;-88
2023/10/21 10:55:53;;;;;;;2.63;1.50;;;;;;;;;;6185527;23;20178;-88
2023/10/21 10:58:23;;;;;;;2.50;2.10;;;;;;;;;;6185316;23;20196;-88
2023/10/21 11:00:52;;;;;;;2.97;2.07;;;;;;;;;;6185390;23;20184;-88
2023/10/21 11:03:25;;;;;;;2.37;1.60;;;;;;;;;;6184720;23;20403;-88
2023/10/21 11:05:55;;;;;;;3.50;1.60;;;;;;;;;;6185437;23;20203;-88
2023/10/21 11:08:24;;;;;;;2.57;1.80;;;;;;;;;;6185708;23;20177;-89
2023/10/21 11:11:02;;;;;;;1.73;1.30;;;;;;;;;;6185515;23;20252;-88
2023/10/21 11:13:31;;;;;;;4.50;2.00;;;;;;;;;;6184563;23;20255;-88
2023/10/21 11:16:00;;;;;;;4.87;2.43;;;;;;;;;;6185538;23;20173;-88
2023/10/21 11:18:30;;;;;;;2.43;1.50;;;;;;;;;;6185107;23;20172;-88
2023/10/21 11:20:59;;;;;;;5.03;1.90;;;;;;;;;;6184936;23;20174;-88
2023/10/21 11:23:28;;;;;;;2.97;1.80;;;;;;;;;;6185367;23;20172;-88
2023/10/21 11:25:59;;;;;;;1.90;1.70;;;;;;;;;;6185764;23;20169;-88
2023/10/21 11:28:28;;;;;;;2.67;1.73;;;;;;;;;;6185818;23;20181;-88
2023/10/21 11:30:58;;;;;;;2.67;1.57;;;;;;;;;;6185466;23;20173;-88
2023/10/21 11:33:28;;;;;;;3.87;1.90;;;;;;;;;;6185572;23;20209;-88
2023/10/21 11:35:57;;;;;;;4.20;2.20;;;;;;;;;;6186244;23;20220;-88
2023/10/21 11:38:28;;;;;;;2.13;1.20;;;;;;;;;;6186240;23;20201;-88
2023/10/21 11:41:00;;;;;;;3.93;2.23;;;;;;;;;;6186586;23;20188;-88
2023/10/21 11:43:29;;;;;;;2.70;1.17;;;;;;;;;;6185794;23;20200;-88
2023/10/21 11:45:58;;;;;;;2.83;1.43;;;;;;;;;;6185636;23;20183;-88
2023/10/21 11:48:27;;;;;;;3.37;1.90;;;;;;;;;;6186129;23;20182;-88
2023/10/21 11:50:56;;;;;;;4.43;1.90;;;;;;;;;;6184984;23;20225;-88
2023/10/21 11:53:26;;;;;;;3.97;2.00;;;;;;;;;;6185281;23;20174;-88
2023/10/21 11:56:52;;;;;;;3.70;1.80;;;;;;;;;;6185697;23;20174;-88
2023/10/21 12:13:39;;;;;;;5.30;2.20;;;;;;;;;;6124755;23;20215;-91
2023/10/21 12:25:15;;;;;;;5.53;2.00;;;;;;;;;;6161479;23;20256;-91
2023/10/21 12:33:49;;;;;;;3.77;2.27;;;;;;;;;;6187546;23;20174;-89
2023/10/21 12:36:27;;;;;;;8.17;2.47;;;;;;;;;;6187845;23;20256;-91
2023/10/21 12:39:19;;;;;;;3.43;1.90;;;;;;;;;;6187370;23;20298;-91
2023/10/21 12:41:52;;;;;;;5.43;2.23;;;;;;;;;;6186743;23;20263;-91
2023/10/21 12:44:23;;;;;;;6.53;2.77;;;;;;;;;;6187583;23;20507;-91
2023/10/21 12:46:57;;;;;;;3.73;2.10;;;;;;;;;;6187977;23;20176;-90
2023/10/21 12:49:28;;;;;;;4.90;2.53;;;;;;;;;;6186164;23;20204;-90
2023/10/21 12:51:57;;;;;;;7.23;2.97;;;;;;;;;;6186513;23;20180;-90
2023/10/21 12:54:30;;;;;;;6.87;2.80;;;;;;;;;;6186858;23;20188;-88
2023/10/21 12:57:00;;;;;;;5.33;2.30;;;;;;;;;;6186685;23;20192;-91
2023/10/21 12:59:29;;;;;;;6.83;3.00;;;;;;;;;;6186361;23;20167;-90
2023/10/21 13:01:57;;;;;;;8.33;2.60;;;;;;;;;;6186328;23;20275;-90
2023/10/21 13:04:27;;;;;;;4.50;2.60;;;;;;;;;;6186051;23;20169;-90
2023/10/21 13:06:56;;;;;;;6.40;2.70;;;;;;;;;;6185665;23;20183;-89
2023/10/21 13:09:25;;;;;;;6.63;2.37;;;;;;;;;;6185036;23;20168;-90
2023/10/21 13:11:53;;;;;;;3.23;1.60;;;;;;;;;;6186569;23;20181;-91
2023/10/21 13:14:23;;;;;;;5.93;2.13;;;;;;;;;;6186398;23;20227;-90
2023/10/21 13:16:53;;;;;;;8.53;2.80;;;;;;;;;;6186954;23;20199;-91
2023/10/21 13:19:22;;;;;;;6.37;2.80;;;;;;;;;;6185855;23;20220;-92
2023/10/21 13:21:57;;;;;;;7.17;3.40;;;;;;;;;;6186171;23;20210;-91
2023/10/21 13:24:25;;;;;;;7.53;3.70;;;;;;;;;;6186340;23;20172;-91
2023/10/21 13:26:54;;;;;;;8.23;3.00;;;;;;;;;;6185914;23;20239;-91
2023/10/21 13:29:23;;;;;;;7.73;3.00;;;;;;;;;;6184787;23;20180;-90
2023/10/21 13:31:51;;;;;;;6.17;1.80;;;;;;;;;;6185509;23;20168;-91
2023/10/21 13:34:20;;;;;;;5.03;2.17;;;;;;;;;;6186218;23;20175;-91
2023/10/21 13:36:48;;;;;;;5.50;2.83;;;;;;;;;;6185627;23;20179;-92
2023/10/21 13:39:18;;;;;;;4.67;2.03;;;;;;;;;;6183551;23;20182;-89
2023/10/21 13:41:48;;;;;;;3.40;2.07;;;;;;;;;;6184432;23;20202;-90
2023/10/21 13:44:17;;;;;;;1.80;1.50;;;;;;;;;;6184160;23;20171;-88
2023/10/21 13:46:46;;;;;;;2.63;1.70;;;;;;;;;;6183639;23;20198;-89
2023/10/21 13:49:15;;;;;;;3.97;2.40;;;;;;;;;;6183514;23;20167;-90
2023/10/21 13:51:44;;;;;;;4.23;2.10;;;;;;;;;;6184455;23;20171;-90
2023/10/21 13:54:13;;;;;;;4.27;2.20;;;;;;;;;;6184533;23;20214;-90
2023/10/21 13:56:44;;;;;;;6.07;3.17;;;;;;;;;;6183454;23;20176;-89
2023/10/21 13:59:13;;;;;;;6.67;2.70;;;;;;;;;;6183944;23;20286;-90
2023/10/21 14:01:42;;;;;;;5.83;2.17;;;;;;;;;;6184788;23;20195;-90
2023/10/21 14:04:12;;;;;;;5.93;2.00;;;;;;;;;;6184273;23;20175;-91
2023/10/21 14:06:41;;;;;;;8.77;2.47;;;;;;;;;;6184083;23;20218;-90
2023/10/21 14:09:22;;;;;;;9.13;2.83;;;;;;;;;;6184575;23;20199;-90
2023/10/21 14:11:53;;;;;;;4.87;2.67;;;;;;;;;;6183932;23;20341;-89
2023/10/21 14:14:22;;;;;;;2.93;1.73;;;;;;;;;;6184323;23;20253;-90
2023/10/21 14:16:51;;;;;;;5.77;2.23;;;;;;;;;;6183707;23;20231;-89
2023/10/21 14:19:22;;;;;;;7.27;3.13;;;;;;;;;;6184780;23;20203;-90
2023/10/21 14:21:51;;;;;;;5.23;2.10;;;;;;;;;;6184321;23;20221;-90
2023/10/21 14:24:20;;;;;;;6.40;2.47;;;;;;;;;;6184360;23;20175;-90
2023/10/21 14:26:48;;;;;;;4.00;2.90;;;;;;;;;;6183396;23;20178;-90
2023/10/21 14:29:19;;;;;;;6.83;3.17;;;;;;;;;;6183807;23;20168;-90
2023/10/21 14:31:50;;;;;;;6.73;2.10;;;;;;;;;;6184383;23;20186;-90
2023/10/21 14:34:19;;;;;;;11.03;3.37;;;;;;;;;;6183608;23;20262;-90
2023/10/21 14:36:47;;;;;;;13.17;2.93;;;;;;;;;;6183252;23;20194;-89
2023/10/21 14:39:17;;;;;;;4.17;1.97;;;;;;;;;;6183353;23;20198;-90
2023/10/21 14:41:45;;;;;;;9.20;2.53;;;;;;;;;;6184213;23;20176;-90
2023/10/21 14:44:14;;;;;;;3.60;1.83;;;;;;;;;;6183595;23;20175;-90
2023/10/21 14:46:44;;;;;;;3.30;1.90;;;;;;;;;;6183261;23;20262;-89
2023/10/21 14:49:12;;;;;;;6.70;2.43;;;;;;;;;;6183855;23;20167;-90
2023/10/21 14:51:41;;;;;;;12.93;3.07;;;;;;;;;;6183733;23;20171;-90
2023/10/21 14:54:10;;;;;;;6.03;2.67;;;;;;;;;;6183484;23;20179;-89
2023/10/21 14:56:38;;;;;;;6.97;3.10;;;;;;;;;;6183457;23;20175;-90
2023/10/21 14:59:06;;;;;;;5.30;2.53;;;;;;;;;;6183600;23;20187;-90
2023/10/21 15:01:35;;;;;;;6.53;2.60;;;;;;;;;;6184347;23;20178;-90
2023/10/21 15:04:06;;;;;;;8.07;3.03;;;;;;;;;;6183472;23;20183;-89
2023/10/21 15:06:35;;;;;;;6.07;2.20;;;;;;;;;;6183345;23;20183;-89
2023/10/21 15:09:04;;;;;;;6.33;2.77;;;;;;;;;;6184247;23;20279;-89
2023/10/21 15:11:33;;;;;;;3.00;1.60;;;;;;;;;;6183732;23;20178;-89
2023/10/21 15:14:02;;;;;;;5.97;2.67;;;;;;;;;;6182877;23;20203;-90